Список аэропортов
Фактическая погода:

26 апреля, 12:00
Температура: +10°C (+7.2*)
Ветер: западный 6 м/с
Давление: *756 мм
разорв. обл.
960 м
Время (МСК)Темп. СВетерВлажностьДавлениеОблачностьОсадки
09:00+9З, 9 м/с64%1005 гПамалооблачно
10:00+10СЗ, 8 м/с58%1005 гПамалооблачно
11:00+11З, 8 м/с56%1006 гПамалооблачно
12:00+12З, 8 м/с55%1007 гПас прояснениями
13:00+12З, 8 м/с53%1008 гПас прояснениями
14:00+13З, 7 м/с50%1008 гПас прояснениями
15:00+14З, 7 м/с47%1007 гПамалооблачно
16:00+14З, 6 м/с46%1008 гПамалооблачно
17:00+14З, 6 м/с46%1008 гПаоблачно
18:00+14З, 6 м/с46%1008 гПас прояснениями
19:00+13З, 6 м/с51%1008 гПас прояснениямисл. дождь
20:00+11ЮЗ, 4 м/с68%1009 гПаоблачнодождь
21:00+9ЮЗ, 3 м/с78%1009 гПамалооблачно
22:00+9ЮЗ, 3 м/с82%1010 гПаясно
23:00+8ЮЗ, 2 м/с86%1010 гПаясно
27 апреля
00:00+6ЮЗ, 2 м/с94%1010 гПаясно
01:00+5ЮЗ, 1 м/с98%1010 гПаясно
02:00+5ЮЗ, 2 м/с98%1010 гПаоблачносл. дождь
03:00+6СЗ, 2 м/с96%1010 гПаоблачнодождь
04:00+6СЗ, 2 м/с96%1010 гПаоблачно
05:00+5СЗ, 2 м/с96%1011 гПаоблачно
06:00+4З, 2 м/с97%1012 гПас прояснениями
07:00+5З, 1 м/с94%1012 гПас прояснениями
08:00+7СЗ, 3 м/с76%1012 гПамалооблачно
09:00+8СЗ, 4 м/с65%1012 гПаясно
10:00+10СЗ, 4 м/с56%1012 гПаясно
11:00+12СЗ, 4 м/с52%1012 гПаясно
12:00+13З, 4 м/с50%1013 гПаясно
13:00+13З, 4 м/с48%1013 гПаоблачно
14:00+14З, 4 м/с46%1012 гПаоблачно
15:00+14З, 5 м/с45%1012 гПамалооблачно
16:00+14З, 6 м/с48%1012 гПаоблачно
17:00+14З, 6 м/с48%1012 гПаоблачно
18:00+14З, 7 м/с52%1013 гПаоблачно
19:00+13З, 6 м/с58%1013 гПаясно
20:00+11З, 6 м/с65%1014 гПаясно
21:00+10СЗ, 5 м/с70%1016 гПамалооблачно
22:00+9СЗ, 5 м/с72%1017 гПаясно
23:00+8СЗ, 4 м/с76%1017 гПаясно
28 апреля
00:00+8З, 4 м/с80%1018 гПаясно
01:00+7З, 3 м/с78%1018 гПаясно
02:00+6З, 3 м/с79%1019 гПаясно
03:00+5З, 3 м/с82%1019 гПаясно
04:00+4З, 3 м/с85%1020 гПамалооблачно
05:00+3З, 2 м/с91%1020 гПаясно
06:00+2З, 2 м/с95%1021 гПаясно
07:00+3З, 2 м/с91%1021 гПаясно
08:00+6З, 2 м/с78%1021 гПаясно
09:00+9З, 3 м/с65%1022 гПаясно